Time;durP1;ratioP1;P1;durP2;ratioP2;P2;SDS_P1;SDS_P2;PMS_P1;PMS_P2;Temp;Humidity;BMP_temperature;BMP_pressure;BME280_temperature;BME280_humidity;BME280_pressure;Samples;Min_cycle;Max_cycle;Signal;HPM_P1;HPM_P2
2022/08/25 00:01:33;;;;;;;17.00;9.80;;;;;;;20.23;100.00;100228.47;5032927;28;20080;-75
2022/08/25 00:04:04;;;;;;;17.52;10.55;;;;;;;20.24;100.00;100233.72;5015692;28;20538;-76
2022/08/25 00:06:32;;;;;;;14.75;9.90;;;;;;;20.19;100.00;100235.19;5033178;28;20045;-77
2022/08/25 00:09:02;;;;;;;14.63;9.50;;;;;;;20.27;100.00;100224.47;5033103;28;20049;-77
2022/08/25 00:11:32;;;;;;;18.50;9.82;;;;;;;20.10;100.00;100228.84;5032674;28;20045;-77
2022/08/25 00:14:04;;;;;;;15.93;9.98;;;;;;;20.11;100.00;100235.97;5033064;28;20471;-79
2022/08/25 00:16:32;;;;;;;16.52;9.93;;;;;;;20.00;100.00;100226.22;5033091;28;20053;-78
2022/08/25 00:19:06;;;;;;;16.63;9.95;;;;;;;19.96;100.00;100216.69;5033270;28;20478;-92
2022/08/25 00:21:35;;;;;;;13.15;9.40;;;;;;;19.94;100.00;100207.88;5032933;28;20132;-77
2022/08/25 00:24:05;;;;;;;17.42;9.50;;;;;;;20.01;100.00;100211.66;5032754;28;20482;-75
2022/08/25 00:26:33;;;;;;;19.00;9.73;;;;;;;19.97;100.00;100225.66;5032702;28;20439;-75
2022/08/25 00:29:01;;;;;;;15.90;9.63;;;;;;;19.99;100.00;100218.25;5033012;28;20046;-75
2022/08/25 00:31:30;;;;;;;16.95;10.20;;;;;;;19.95;100.00;100220.41;5032752;28;20045;-75
2022/08/25 00:34:08;;;;;;;20.73;9.55;;;;;;;19.86;100.00;100213.19;5032845;28;20045;-75
2022/08/25 00:36:37;;;;;;;19.60;9.75;;;;;;;19.91;100.00;100219.00;5032637;28;20076;-76
2022/08/25 00:39:08;;;;;;;17.33;9.40;;;;;;;19.88;100.00;100211.22;5032578;28;20048;-75
2022/08/25 00:41:39;;;;;;;15.43;9.43;;;;;;;20.05;100.00;100214.91;5032443;28;20254;-75
2022/08/25 00:44:09;;;;;;;16.25;9.63;;;;;;;20.05;100.00;100212.19;5032824;28;20056;-75
2022/08/25 00:46:40;;;;;;;15.57;9.60;;;;;;;20.01;100.00;100218.94;5014768;28;20124;-74
2022/08/25 00:49:13;;;;;;;16.08;9.25;;;;;;;19.90;100.00;100222.72;5032583;28;20049;-75
2022/08/25 00:51:59;;;;;;;15.35;9.25;;;;;;;19.87;100.00;100217.59;5032929;28;20117;-74
2022/08/25 00:54:34;;;;;;;16.17;8.75;;;;;;;19.77;100.00;100216.81;5036472;28;20046;-75
2022/08/25 00:57:03;;;;;;;15.30;9.00;;;;;;;19.69;100.00;100214.03;5036864;28;20091;-75
2022/08/25 00:59:32;;;;;;;16.33;8.93;;;;;;;19.64;100.00;100200.09;5036049;28;20051;-75
2022/08/25 01:02:01;;;;;;;16.67;8.70;;;;;;;19.71;100.00;100212.03;5036606;28;20232;-75
2022/08/25 01:04:31;;;;;;;14.90;8.35;;;;;;;19.77;100.00;100207.84;5036256;28;20124;-75
2022/08/25 01:07:00;;;;;;;14.73;8.68;;;;;;;19.71;100.00;100212.03;5036369;28;20397;-75
2022/08/25 01:09:31;;;;;;;13.85;8.20;;;;;;;19.62;100.00;100215.66;5036071;28;20413;-78
2022/08/25 01:12:01;;;;;;;17.85;8.80;;;;;;;19.60;100.00;100210.38;5036254;28;20132;-75
2022/08/25 01:14:31;;;;;;;18.60;9.07;;;;;;;19.67;100.00;100210.63;5018344;28;20077;-75
2022/08/25 01:16:59;;;;;;;16.17;8.00;;;;;;;19.73;100.00;100210.88;5036165;28;20042;-75
2022/08/25 01:19:29;;;;;;;18.90;8.80;;;;;;;19.66;100.00;100208.91;5018136;28;20132;-75
2022/08/25 01:21:58;;;;;;;18.67;9.30;;;;;;;19.65;100.00;100212.63;5035968;28;20045;-75
2022/08/25 01:24:34;;;;;;;14.02;8.68;;;;;;;19.63;100.00;100209.22;5018035;28;20052;-77
2022/08/25 01:27:03;;;;;;;15.10;8.18;;;;;;;19.67;100.00;100205.19;5036012;28;20041;-79
2022/08/25 01:29:31;;;;;;;13.15;8.48;;;;;;;19.53;100.00;100211.09;5035832;28;20482;-78
2022/08/25 01:32:03;;;;;;;13.38;8.35;;;;;;;19.61;100.00;100211.25;5035881;28;20103;-78
2022/08/25 01:34:34;;;;;;;14.13;8.20;;;;;;;19.53;100.00;100208.41;5035700;28;20041;-76
2022/08/25 01:37:05;;;;;;;14.35;8.43;;;;;;;19.56;100.00;100208.13;5035742;28;20485;-77
2022/08/25 01:39:35;;;;;;;14.93;8.35;;;;;;;19.50;100.00;100195.19;5017566;28;20489;-76
2022/08/25 01:42:23;;;;;;;16.80;8.65;;;;;;;19.63;100.00;100201.97;5035967;28;20045;-79
2022/08/25 01:44:51;;;;;;;14.75;8.23;;;;;;;19.56;100.00;100203.56;5024686;28;20144;-78
2022/08/25 01:47:20;;;;;;;15.07;8.63;;;;;;;19.53;100.00;100197.56;5035279;28;20482;-79
2022/08/25 01:49:50;;;;;;;19.48;9.43;;;;;;;19.55;100.00;100200.97;5035908;28;20045;-78
2022/08/25 01:52:27;;;;;;;16.08;8.65;;;;;;;19.47;100.00;100193.59;5035311;28;20434;-78
2022/08/25 01:54:56;;;;;;;18.38;8.75;;;;;;;19.51;100.00;100200.44;5035522;28;20042;-76
2022/08/25 01:57:24;;;;;;;19.80;8.73;;;;;;;19.45;100.00;100195.63;5035296;28;20096;-75
2022/08/25 01:59:52;;;;;;;16.98;8.48;;;;;;;19.44;100.00;100194.78;5035258;28;20041;-75
2022/08/25 02:02:20;;;;;;;18.00;9.25;;;;;;;19.38;100.00;100195.34;5034955;28;20045;-75
2022/08/25 02:04:48;;;;;;;14.23;8.48;;;;;;;19.52;100.00;100201.28;5034339;28;20076;-75
2022/08/25 02:07:18;;;;;;;13.80;8.40;;;;;;;19.45;100.00;100204.59;5035291;28;20049;-75
2022/08/25 02:09:48;;;;;;;18.00;9.10;;;;;;;19.47;100.00;100200.88;5035182;28;20124;-75
2022/08/25 02:12:16;;;;;;;17.77;9.15;;;;;;;19.60;100.00;100198.72;5035266;28;20049;-75
2022/08/25 02:14:44;;;;;;;15.50;8.35;;;;;;;19.67;100.00;100197.09;5035212;28;20041;-75
2022/08/25 02:17:12;;;;;;;15.40;8.70;;;;;;;19.59;100.00;100195.16;5035292;28;20076;-75
2022/08/25 02:19:41;;;;;;;16.05;8.63;;;;;;;19.42;100.00;100202.19;5034910;28;20051;-75
2022/08/25 02:22:09;;;;;;;20.40;9.38;;;;;;;19.37;100.00;100200.91;5035080;28;20132;-75
2022/08/25 02:24:37;;;;;;;18.30;9.85;;;;;;;19.26;100.00;100201.97;5034680;28;20041;-75
2022/08/25 02:27:07;;;;;;;17.42;9.77;;;;;;;19.26;100.00;100195.72;5034742;28;20041;-75
2022/08/25 02:29:35;;;;;;;16.63;8.95;;;;;;;19.28;100.00;100189.16;5033447;28;20460;-75
2022/08/25 02:32:03;;;;;;;15.32;9.20;;;;;;;19.29;100.00;100190.84;5034829;28;20042;-75
2022/08/25 02:34:31;;;;;;;18.15;9.23;;;;;;;19.38;100.00;100184.53;5034503;28;20087;-75
2022/08/25 02:37:00;;;;;;;21.25;9.63;;;;;;;19.45;100.00;100185.66;5034796;28;20068;-75
2022/08/25 02:39:28;;;;;;;20.52;9.63;;;;;;;19.37;100.00;100182.84;5034418;28;20088;-75
2022/08/25 02:41:56;;;;;;;17.02;8.82;;;;;;;19.41;100.00;100181.56;5034747;28;20077;-75
2022/08/25 02:44:25;;;;;;;21.65;9.93;;;;;;;19.41;100.00;100178.00;5034267;28;20107;-75
2022/08/25 02:46:53;;;;;;;15.20;9.52;;;;;;;19.38;100.00;100184.53;5034665;28;20076;-75
2022/08/25 02:49:23;;;;;;;19.67;9.95;;;;;;;19.40;100.00;100177.16;5034124;28;20041;-76
2022/08/25 02:51:51;;;;;;;15.07;9.45;;;;;;;19.47;100.00;100187.34;5034585;28;20045;-75
2022/08/25 02:54:19;;;;;;;16.02;9.73;;;;;;;19.30;100.00;100179.06;5034241;28;20045;-75
2022/08/25 02:56:48;;;;;;;18.05;9.90;;;;;;;19.23;100.00;100186.06;5034396;28;20052;-75
2022/08/25 02:59:18;;;;;;;17.30;10.23;;;;;;;19.25;100.00;100188.59;5034324;28;20056;-75
2022/08/25 03:01:47;;;;;;;18.25;10.32;;;;;;;19.29;100.00;100190.84;5033875;28;20137;-75
2022/08/25 03:04:16;;;;;;;18.55;9.27;;;;;;;19.32;100.00;100187.88;5034587;28;20045;-75
2022/08/25 03:06:45;;;;;;;17.95;10.65;;;;;;;19.28;100.00;100181.03;5033696;28;20052;-79
2022/08/25 03:09:14;;;;;;;18.77;10.38;;;;;;;19.27;100.00;100171.22;5034160;28;20046;-79
2022/08/25 03:11:42;;;;;;;18.38;9.88;;;;;;;19.21;100.00;100181.81;5034058;28;20529;-79
2022/08/25 03:14:10;;;;;;;19.52;10.27;;;;;;;19.25;100.00;100175.94;5034165;28;20128;-78
2022/08/25 03:16:41;;;;;;;17.00;10.65;;;;;;;19.18;100.00;100177.53;5033416;28;20045;-79
2022/08/25 03:19:15;;;;;;;18.02;10.43;;;;;;;19.13;100.00;100179.84;5034012;28;20041;-78
2022/08/25 03:21:44;;;;;;;19.35;10.80;;;;;;;19.08;100.00;100171.31;5033764;28;20290;-79
2022/08/25 03:24:13;;;;;;;15.55;10.65;;;;;;;19.19;100.00;100172.97;5033998;28;20052;-79
2022/08/25 03:26:54;;;;;;;19.20;10.90;;;;;;;19.18;100.00;100166.72;5033297;28;20041;-79
2022/08/25 03:29:24;;;;;;;17.42;10.55;;;;;;;19.17;100.00;100175.81;5032389;28;20049;-77
2022/08/25 03:31:56;;;;;;;19.67;10.55;;;;;;;19.07;100.00;100177.72;5033817;28;20042;-79
2022/08/25 03:34:28;;;;;;;16.95;10.90;;;;;;;19.04;100.00;100180.72;5033622;28;20120;-79
2022/08/25 03:36:57;;;;;;;21.10;11.52;;;;;;;18.98;100.00;100181.31;5033508;28;20045;-80
2022/08/25 03:39:26;;;;;;;20.02;12.10;;;;;;;19.10;100.00;100180.97;5033303;28;20398;-81
2022/08/25 03:41:54;;;;;;;19.63;11.32;;;;;;;19.14;100.00;100181.53;5033309;28;20055;-80
2022/08/25 03:44:22;;;;;;;18.83;11.20;;;;;;;19.21;100.00;100185.34;5033209;28;20081;-81
2022/08/25 03:46:52;;;;;;;19.65;11.75;;;;;;;19.13;100.00;100180.69;5033484;28;20069;-81
2022/08/25 03:49:23;;;;;;;24.42;11.60;;;;;;;19.10;100.00;100182.81;5033244;28;20046;-81
2022/08/25 03:51:54;;;;;;;18.02;11.35;;;;;;;19.05;100.00;100182.44;5033500;28;20144;-81
2022/08/25 03:54:25;;;;;;;20.08;11.15;;;;;;;19.18;100.00;100193.75;5033312;28;20048;-78
2022/08/25 03:56:53;;;;;;;18.88;10.57;;;;;;;19.13;100.00;100178.00;5033246;28;20041;-77
2022/08/25 03:59:21;;;;;;;24.80;11.55;;;;;;;19.15;100.00;100180.53;5033129;28;20454;-77
2022/08/25 04:01:50;;;;;;;16.70;10.52;;;;;;;19.22;100.00;100178.94;5032859;28;20061;-78
2022/08/25 04:04:22;;;;;;;17.47;11.13;;;;;;;19.20;100.00;100180.91;5033077;28;20050;-75
2022/08/25 04:06:52;;;;;;;26.52;11.32;;;;;;;19.26;100.00;100180.34;5032773;28;20317;-76
2022/08/25 04:09:22;;;;;;;20.08;11.18;;;;;;;19.25;100.00;100181.34;5032930;28;20049;-77
2022/08/25 04:11:50;;;;;;;20.00;11.43;;;;;;;19.23;100.00;100191.47;5032794;28;20053;-78
2022/08/25 04:14:22;;;;;;;19.65;11.68;;;;;;;19.37;100.00;100190.09;5015468;28;20081;-76
2022/08/25 04:16:51;;;;;;;23.63;11.43;;;;;;;19.35;100.00;100190.25;5032927;28;20129;-77
2022/08/25 04:19:20;;;;;;;18.83;11.70;;;;;;;19.43;100.00;100190.38;5032864;28;20128;-77
2022/08/25 04:21:49;;;;;;;18.05;11.70;;;;;;;19.36;100.00;100186.53;5032696;28;20041;-77
2022/08/25 04:24:20;;;;;;;19.33;11.52;;;;;;;19.45;100.00;100185.66;5032972;28;20080;-77
2022/08/25 04:26:50;;;;;;;18.45;12.02;;;;;;;19.53;100.00;100197.56;5015171;28;20083;-77
2022/08/25 04:29:21;;;;;;;22.85;11.20;;;;;;;19.62;100.00;100189.44;5036886;28;20045;-78
2022/08/25 04:31:51;;;;;;;22.23;12.20;;;;;;;19.68;100.00;100190.66;5036759;28;20053;-78
2022/08/25 04:34:21;;;;;;;18.90;11.60;;;;;;;19.88;100.00;100192.25;5036743;28;20046;-78
2022/08/25 04:36:59;;;;;;;22.23;11.35;;;;;;;19.96;100.00;100195.03;5037044;28;20041;-78
2022/08/25 04:39:29;;;;;;;20.02;11.07;;;;;;;20.01;100.00;100190.00;5036595;28;20041;-77
2022/08/25 04:41:59;;;;;;;21.55;11.00;;;;;;;19.80;100.00;100186.75;5036659;28;20409;-78
2022/08/25 04:44:28;;;;;;;22.20;12.07;;;;;;;20.04;100.00;100196.13;5036675;28;20053;-77
2022/08/25 04:46:57;;;;;;;19.20;11.77;;;;;;;20.08;100.00;100175.88;5036784;28;20124;-75
2022/08/25 04:49:25;;;;;;;23.38;11.45;;;;;;;20.30;100.00;100187.06;5036586;28;20041;-76
2022/08/25 04:51:55;;;;;;;20.40;10.98;;;;;;;20.31;100.00;100182.50;5036254;28;20486;-78
2022/08/25 04:54:23;;;;;;;22.40;11.05;;;;;;;20.19;100.00;100194.59;5036498;28;20479;-78
2022/08/25 04:56:52;;;;;;;20.25;10.95;;;;;;;20.29;100.00;100193.50;5036264;28;20041;-78
2022/08/25 04:59:26;;;;;;;23.42;11.30;;;;;;;20.38;100.00;100197.13;5036253;28;20050;-74
2022/08/25 05:02:00;;;;;;;21.60;10.95;;;;;;;20.37;100.00;100192.72;5036590;28;20065;-75
2022/08/25 05:04:30;;;;;;;18.88;10.57;;;;;;;20.46;100.00;100191.81;5018585;28;20046;-78
2022/08/25 05:06:59;;;;;;;22.35;11.27;;;;;;;20.68;100.00;100195.00;5036274;28;20050;-75
2022/08/25 05:09:28;;;;;;;18.35;10.38;;;;;;;20.86;100.00;100187.69;5036045;28;20041;-75
2022/08/25 05:12:02;;;;;;;19.48;10.50;;;;;;;20.92;100.00;100180.75;5018614;28;20449;-75
2022/08/25 05:14:30;;;;;;;20.92;10.90;;;;;;;21.21;100.00;100170.41;5036178;28;20053;-79
2022/08/25 05:16:59;;;;;;;19.02;9.80;;;;;;;21.31;100.00;100181.16;5036147;28;20461;-76
2022/08/25 05:19:27;;;;;;;19.05;9.98;;;;;;;21.34;100.00;100178.13;5036025;28;20045;-75
2022/08/25 05:21:55;;;;;;;19.70;9.85;;;;;;;21.09;100.00;100177.97;5035726;28;20473;-75
2022/08/25 05:24:25;;;;;;;19.73;10.50;;;;;;;21.29;100.00;100177.75;5036112;28;20041;-76
2022/08/25 05:26:54;;;;;;;19.33;10.55;;;;;;;21.38;100.00;100182.22;5035755;28;20188;-76
2022/08/25 05:29:23;;;;;;;18.75;10.15;;;;;;;21.62;100.00;100178.75;5018085;28;20079;-76
2022/08/25 05:31:52;;;;;;;22.92;10.40;;;;;;;21.66;100.00;100186.38;5035627;28;20057;-76
2022/08/25 05:34:21;;;;;;;18.48;10.00;;;;;;;21.85;100.00;100184.38;5035715;28;20069;-76
2022/08/25 05:36:50;;;;;;;20.98;10.20;;;;;;;22.03;100.00;100186.97;5035506;28;20046;-76
2022/08/25 05:39:18;;;;;;;21.00;10.27;;;;;;;22.09;100.00;100192.59;5035713;28;20049;-76
2022/08/25 05:41:46;;;;;;;19.02;9.80;;;;;;;22.17;100.00;100189.91;5035016;28;20132;-78
2022/08/25 05:44:16;;;;;;;23.10;9.45;;;;;;;22.15;100.00;100175.63;5035314;28;20049;-76
2022/08/25 05:46:50;;;;;;;18.48;9.85;;;;;;;22.64;100.00;100185.66;5035267;28;20041;-76
2022/08/25 05:49:18;;;;;;;18.40;9.05;;;;;;;22.98;100.00;100185.47;5017611;28;20509;-75
2022/08/25 05:51:46;;;;;;;17.40;9.30;;;;;;;23.12;100.00;100182.00;5035300;28;20041;-80
2022/08/25 05:54:15;;;;;;;20.67;10.18;;;;;;;23.30;100.00;100184.50;5035309;28;20363;-76
2022/08/25 05:56:44;;;;;;;16.85;9.10;;;;;;;23.51;100.00;100178.44;5035099;28;20124;-75
2022/08/25 05:59:12;;;;;;;18.52;8.45;;;;;;;23.76;100.00;100184.66;5035297;28;20072;-79
2022/08/25 06:04:27;;;;;;;17.98;9.13;;;;;;;24.55;100.00;100183.41;5035308;28;20124;-78
2022/08/25 06:06:55;;;;;;;16.95;7.85;;;;;;;24.88;100.00;100183.94;5034887;28;20042;-75
2022/08/25 06:09:24;;;;;;;16.73;7.07;;;;;;;25.35;100.00;100178.13;5028916;28;20053;-76
2022/08/25 06:11:52;;;;;;;19.25;7.63;;;;;;;25.08;100.00;100182.38;5012072;28;20069;-75
2022/08/25 06:14:23;;;;;;;16.30;8.35;;;;;;;25.68;100.00;100178.56;5015182;28;20046;-76
2022/08/25 06:16:51;;;;;;;18.25;7.70;;;;;;;25.56;100.00;100182.81;5015112;28;20046;-78
2022/08/25 06:19:21;;;;;;;14.15;7.53;;;;;;;26.16;100.00;100186.28;5000878;28;20108;-78
2022/08/25 06:21:55;;;;;;;20.17;7.97;;;;;;;26.66;100.00;100171.59;4997988;28;20045;-77
2022/08/25 06:24:24;;;;;;;15.68;7.30;;;;;;;26.80;100.00;100191.69;5014991;28;20483;-76
2022/08/25 06:26:53;;;;;;;15.65;7.20;;;;;;;26.76;100.00;100185.78;5014563;28;20042;-77
2022/08/25 06:29:21;;;;;;;15.35;7.68;;;;;;;26.77;100.00;100187.47;5014859;28;20077;-76
2022/08/25 06:31:49;;;;;;;17.60;7.20;;;;;;;27.18;100.00;100188.63;4997163;28;20050;-77
2022/08/25 06:34:19;;;;;;;17.35;7.07;;;;;;;27.49;100.00;100197.19;5014608;28;20075;-76
2022/08/25 06:36:51;;;;;;;15.55;7.13;;;;;;;27.50;100.00;100198.03;5014760;28;20080;-80
2022/08/25 06:39:21;;;;;;;16.30;6.75;;;;;;;27.70;100.00;100204.50;5021811;28;20049;-77
2022/08/25 06:41:53;;;;;;;19.85;6.70;;;;;;;27.67;100.00;100199.41;5034225;28;20418;-81
2022/08/25 06:44:22;;;;;;;15.30;6.32;;;;;;;27.72;100.00;100210.63;5019159;28;20486;-81
2022/08/25 06:46:51;;;;;;;12.52;6.00;;;;;;;27.24;100.00;100204.25;5032711;28;20045;-76
2022/08/25 06:49:19;;;;;;;14.40;6.35;;;;;;;27.06;100.00;100210.22;5034257;28;20041;-75
2022/08/25 06:51:48;;;;;;;16.08;6.15;;;;;;;26.96;100.00;100201.50;5033382;28;20120;-81
2022/08/25 06:54:16;;;;;;;12.98;6.63;;;;;;;26.91;100.00;100190.28;5033860;28;20046;-76
2022/08/25 06:56:46;;;;;;;12.23;6.72;;;;;;;26.77;100.00;100198.41;5034203;28;20052;-76
2022/08/25 06:59:17;;;;;;;18.13;6.85;;;;;;;26.73;100.00;100201.72;5033962;28;20487;-76
2022/08/25 07:01:45;;;;;;;18.38;7.20;;;;;;;26.40;100.00;100202.31;5033884;28;20080;-76
2022/08/25 07:04:17;;;;;;;14.68;6.38;;;;;;;26.21;100.00;100195.56;5033867;28;20046;-78
2022/08/25 07:06:46;;;;;;;14.55;6.32;;;;;;;26.04;100.00;100199.59;5034059;28;20053;-78
2022/08/25 07:09:14;;;;;;;15.02;6.75;;;;;;;25.78;100.00;100196.56;5033644;28;20401;-78
2022/08/25 07:11:44;;;;;;;12.90;5.93;;;;;;;26.05;100.00;100198.53;5033521;28;20451;-78
2022/08/25 07:14:16;;;;;;;15.20;6.43;;;;;;;26.11;100.00;100194.19;5032644;28;20056;-78
2022/08/25 07:16:45;;;;;;;14.05;6.55;;;;;;;26.04;100.00;100196.00;5033859;28;20079;-78
2022/08/25 07:19:19;;;;;;;14.77;6.03;;;;;;;25.78;100.00;100196.56;5033876;28;20072;-77
2022/08/25 07:21:53;;;;;;;11.50;6.40;;;;;;;25.76;100.00;100194.00;5033805;28;20045;-78
2022/08/25 07:24:22;;;;;;;16.10;6.25;;;;;;;25.66;100.00;100188.81;5032093;28;20487;-80
2022/08/25 07:26:54;;;;;;;15.07;6.07;;;;;;;25.72;100.00;100192.72;5032087;28;20053;-81
2022/08/25 07:29:25;;;;;;;13.88;6.45;;;;;;;25.72;100.00;100192.72;5033423;28;20111;-81
2022/08/25 07:32:14;;;;;;;14.88;6.05;;;;;;;25.71;100.00;100184.72;5033555;28;20041;-78
2022/08/25 07:37:28;;;;;;;10.90;5.43;;;;;;;25.39;100.00;100192.28;5033587;28;20428;-78
2022/08/25 07:40:19;;;;;;;15.52;5.95;;;;;;;25.67;100.00;100190.53;5033336;28;20475;-78
2022/08/25 07:42:49;;;;;;;12.75;6.07;;;;;;;25.64;100.00;100187.31;5033620;28;20045;-77
2022/08/25 07:45:20;;;;;;;13.18;6.30;;;;;;;25.79;100.00;100187.34;5031541;28;20061;-77
2022/08/25 07:47:50;;;;;;;14.25;5.72;;;;;;;25.66;100.00;100188.81;5033306;28;20100;-74
2022/08/25 07:50:19;;;;;;;11.98;5.40;;;;;;;25.80;100.00;100183.56;5033193;28;20187;-73
2022/08/25 07:52:48;;;;;;;13.20;6.10;;;;;;;25.92;100.00;100188.31;5032091;28;20080;-74
2022/08/25 07:55:22;;;;;;;14.75;6.10;;;;;;;25.94;100.00;100196.31;5033073;28;20038;-74
2022/08/25 07:57:51;;;;;;;12.30;5.00;;;;;;;26.03;100.00;100195.16;5031835;28;20057;-77
2022/08/25 08:00:26;;;;;;;15.23;5.80;;;;;;;26.04;100.00;100191.38;5033084;28;20136;-81
2022/08/25 08:02:55;;;;;;;13.75;5.43;;;;;;;26.11;100.00;100186.84;5031350;28;20049;-82
2022/08/25 08:05:24;;;;;;;14.00;5.35;;;;;;;26.06;100.00;100181.13;5032938;28;20049;-83
2022/08/25 08:07:52;;;;;;;13.98;5.80;;;;;;;26.06;100.00;100186.59;5032999;28;20046;-81
2022/08/25 08:10:21;;;;;;;10.70;4.60;;;;;;;26.14;100.00;100185.59;5031301;28;20049;-81
2022/08/25 08:13:10;;;;;;;12.20;4.75;;;;;;;26.06;100.00;100189.31;5031544;28;20065;-79
2022/08/25 08:15:46;;;;;;;14.85;5.70;;;;;;;26.28;100.00;100192.06;5032862;28;20045;-77
2022/08/25 08:18:15;;;;;;;10.30;4.82;;;;;;;26.36;100.00;100194.66;5033122;28;20053;-76
2022/08/25 08:20:45;;;;;;;11.70;5.25;;;;;;;26.33;100.00;100189.56;5032703;28;20449;-81
2022/08/25 08:23:13;;;;;;;13.02;5.22;;;;;;;26.36;100.00;100190.03;5032880;28;20137;-78
2022/08/25 08:25:42;;;;;;;10.52;5.20;;;;;;;26.21;100.00;100191.97;5032516;28;20045;-79
2022/08/25 08:28:10;;;;;;;11.38;5.40;;;;;;;26.16;100.00;100189.00;5032880;28;20070;-75
2022/08/25 08:30:38;;;;;;;16.65;5.10;;;;;;;26.32;100.00;100182.41;5032588;28;20133;-83
2022/08/25 08:33:23;;;;;;;13.23;4.65;;;;;;;26.50;100.00;100185.56;5031446;28;20506;-76
2022/08/25 08:35:56;;;;;;;12.07;4.47;;;;;;;26.41;100.00;100192.22;5031195;28;20065;-74
2022/08/25 08:38:26;;;;;;;12.27;4.93;;;;;;;26.42;100.00;100193.91;5032570;28;20056;-74
2022/08/25 08:43:56;;;;;;;13.40;5.10;;;;;;;26.51;100.00;100182.63;5032441;28;20048;-75
2022/08/25 08:46:29;;;;;;;13.02;4.80;;;;;;;26.75;100.00;100183.25;5032407;28;20037;-79
2022/08/25 08:49:05;;;;;;;9.57;4.57;;;;;;;26.72;100.00;100184.47;4999569;28;20380;-78
2022/08/25 08:51:43;;;;;;;10.35;4.45;;;;;;;26.94;100.00;100177.06;5013009;28;20053;-77
2022/08/25 08:54:19;;;;;;;10.93;5.05;;;;;;;26.88;100.00;100185.22;4994987;28;20137;-78
2022/08/25 08:56:50;;;;;;;11.30;4.85;;;;;;;26.96;100.00;100182.34;4994872;28;20046;-76
2022/08/25 08:59:24;;;;;;;9.73;4.47;;;;;;;27.04;100.00;100182.22;4995121;28;20042;-76
2022/08/25 09:02:00;;;;;;;11.55;4.65;;;;;;;26.98;100.00;100182.97;4995038;28;20057;-75
2022/08/25 09:04:34;;;;;;;10.98;4.28;;;;;;;27.03;100.00;100180.53;5012453;28;20072;-78
2022/08/25 09:07:11;;;;;;;8.55;4.13;;;;;;;27.22;100.00;100174.34;5012582;28;20141;-81
2022/08/25 09:09:42;;;;;;;10.00;4.32;;;;;;;27.54;100.00;100174.69;5012070;28;20073;-90
2022/08/25 09:12:13;;;;;;;11.70;4.72;;;;;;;27.39;100.00;100174.81;4995052;28;20392;-83
2022/08/25 09:15:01;;;;;;;11.15;4.32;;;;;;;27.09;100.00;100169.59;5015177;28;20052;-86
2022/08/25 09:17:56;;;;;;;12.23;4.65;;;;;;;27.12;100.00;100167.50;4998937;28;20046;-78
2022/08/25 09:20:47;;;;;;;10.45;4.40;;;;;;;27.36;100.00;100162.38;5016289;28;20064;-79
2022/08/25 09:23:28;;;;;;;8.10;4.13;;;;;;;27.13;100.00;100163.75;5016181;28;20041;-76
2022/08/25 09:26:03;;;;;;;18.15;4.65;;;;;;;27.30;100.00;100159.59;4998243;28;20050;-80
2022/08/25 09:28:39;;;;;;;9.85;4.03;;;;;;;27.47;100.00;100146.41;5016426;28;20042;-77
2022/08/25 09:31:16;;;;;;;11.45;3.90;;;;;;;27.57;100.00;100146.88;5016012;28;20045;-75
2022/08/25 09:33:44;;;;;;;10.88;4.20;;;;;;;27.53;100.00;100145.59;4998443;28;20539;-76
2022/08/25 09:36:15;;;;;;;10.15;4.38;;;;;;;27.65;100.00;100141.22;5015623;28;20104;-82
2022/08/25 09:38:46;;;;;;;7.45;3.80;;;;;;;27.71;100.00;100145.91;5016345;28;20052;-80
2022/08/25 09:41:16;;;;;;;12.13;4.32;;;;;;;27.71;100.00;100139.59;4998631;28;20502;-80
2022/08/25 09:43:54;;;;;;;11.18;4.18;;;;;;;27.65;100.00;100130.25;4998514;28;20054;-80
2022/08/25 09:46:25;;;;;;;8.75;4.07;;;;;;;27.56;100.00;100129.59;5035436;28;20103;-80
2022/08/25 09:48:56;;;;;;;14.25;4.30;;;;;;;27.61;100.00;100124.34;5033923;28;20045;-80
2022/08/25 09:51:28;;;;;;;13.30;4.47;;;;;;;27.77;100.00;100125.88;5035481;28;20486;-80
2022/08/25 09:54:18;;;;;;;10.70;3.92;;;;;;;27.80;100.00;100122.75;5034092;28;20080;-79
2022/08/25 09:56:50;;;;;;;9.75;4.28;;;;;;;27.92;100.00;100118.34;5035279;28;20042;-80
2022/08/25 09:59:21;;;;;;;8.88;4.22;;;;;;;27.93;100.00;100105.47;5034263;28;20056;-80
2022/08/25 10:02:05;;;;;;;8.88;4.22;;;;;;;27.87;100.00;100107.16;5035057;28;20120;-80
2022/08/25 10:04:36;;;;;;;8.23;4.20;;;;;;;27.95;100.00;100115.19;5035592;28;20084;-80
2022/08/25 10:07:24;;;;;;;11.23;4.50;;;;;;;28.04;100.00;100109.50;5033763;28;20341;-79
2022/08/25 10:09:56;;;;;;;8.70;3.78;;;;;;;28.04;100.00;100095.78;5034792;28;20069;-80
2022/08/25 10:12:30;;;;;;;9.80;4.20;;;;;;;28.12;100.00;100110.13;5034091;28;20425;-80
2022/08/25 10:14:59;;;;;;;8.55;4.32;;;;;;;28.15;100.00;100108.88;5034787;28;20526;-80
2022/08/25 10:17:29;;;;;;;7.57;4.05;;;;;;;28.24;100.00;100104.88;5035027;28;20414;-80
2022/08/25 10:20:16;;;;;;;11.85;4.30;;;;;;;28.23;100.00;100093.06;5034707;28;20483;-80
2022/08/25 10:22:47;;;;;;;6.95;3.80;;;;;;;28.43;100.00;100100.47;5035287;28;20096;-80
2022/08/25 10:25:23;;;;;;;7.47;3.83;;;;;;;28.21;100.00;100099.81;5034030;28;20042;-79
2022/08/25 10:27:59;;;;;;;10.18;3.95;;;;;;;28.36;100.00;100097.72;5033460;28;20045;-80
2022/08/25 10:30:34;;;;;;;9.65;4.40;;;;;;;28.34;100.00;100088.88;5034844;28;20045;-80
2022/08/25 10:33:15;;;;;;;10.40;4.55;;;;;;;28.42;100.00;100083.16;5033515;28;20144;-80
2022/08/25 10:35:57;;;;;;;9.93;4.40;;;;;;;28.72;100.00;100079.94;5034747;28;20394;-80
2022/08/25 10:38:42;;;;;;;9.57;4.35;;;;;;;28.59;100.00;100082.72;5034544;28;20046;-80
2022/08/25 10:41:27;;;;;;;10.05;4.32;;;;;;;28.55;100.00;100082.28;5034371;28;20049;-80
2022/08/25 10:44:06;;;;;;;10.73;4.35;;;;;;;28.66;100.00;100078.94;5034224;28;20076;-80
2022/08/25 10:46:46;;;;;;;7.57;4.00;;;;;;;28.49;100.00;100075.78;5034507;28;20041;-81
2022/08/25 10:49:19;;;;;;;12.13;4.28;;;;;;;28.44;100.00;100070.06;5034629;28;20439;-80
2022/08/25 10:51:57;;;;;;;11.30;4.88;;;;;;;28.57;100.00;100062.88;5033270;28;20049;-80
2022/08/25 10:54:39;;;;;;;9.05;4.38;;;;;;;28.71;100.00;100067.28;5034431;28;20148;-80
2022/08/25 10:57:17;;;;;;;9.05;4.47;;;;;;;28.75;100.00;100061.13;5034164;28;20116;-80
2022/08/25 10:59:57;;;;;;;12.60;4.70;;;;;;;28.82;100.00;100055.66;5032926;28;20053;-80
2022/08/25 11:03:01;;;;;;;11.93;4.82;;;;;;;28.97;100.00;100064.50;5034298;28;20114;-80
2022/08/25 11:05:39;;;;;;;9.05;4.30;;;;;;;28.94;100.00;100051.19;5034052;28;20037;-79
2022/08/25 11:08:12;;;;;;;12.88;5.18;;;;;;;28.89;100.00;100051.03;5032582;28;20045;-80
2022/08/25 11:10:47;;;;;;;12.45;4.22;;;;;;;28.86;100.00;100045.94;5033068;28;20049;-80
2022/08/25 11:13:25;;;;;;;10.35;4.43;;;;;;;28.72;100.00;100042.38;5034195;28;20144;-80
2022/08/25 11:16:00;;;;;;;11.90;4.95;;;;;;;28.84;100.00;100030.72;5032381;28;20052;-80
2022/08/25 11:18:54;;;;;;;8.70;4.00;;;;;;;28.97;100.00;100041.72;5032622;28;20505;-80
2022/08/25 11:21:31;;;;;;;10.93;4.40;;;;;;;29.02;100.00;100036.38;5033868;28;20041;-80
2022/08/25 11:24:10;;;;;;;10.00;4.43;;;;;;;29.00;100.00;100036.59;5032332;28;20045;-80
2022/08/25 11:26:56;;;;;;;11.32;4.63;;;;;;;29.08;100.00;100030.03;5032286;28;20494;-80
2022/08/25 11:29:30;;;;;;;8.88;4.60;;;;;;;29.09;100.00;100020.72;5032665;28;20457;-80
2022/08/25 11:32:00;;;;;;;11.27;4.90;;;;;;;29.11;100.00;100026.84;5033429;28;20471;-80
2022/08/25 11:34:33;;;;;;;8.85;4.55;;;;;;;29.23;100.00;100021.50;5033986;28;20049;-80
2022/08/25 11:37:08;;;;;;;10.50;4.20;;;;;;;29.26;100.00;100012.84;5033174;28;20112;-80
2022/08/25 11:40:12;;;;;;;9.73;4.35;;;;;;;28.98;100.00;100011.28;5033520;28;20111;-80